sensor_id;sensor_type;location;lat;lon;timestamp;P1;durP1;ratioP1;P2;durP2;ratioP2
35675;SDS011;21790;42.668;23.298;2024-03-23T00:51:55;22.63;;;9.93;;
35675;SDS011;21790;42.668;23.298;2024-03-23T00:54:21;25.77;;;9.80;;
35675;SDS011;21790;42.668;23.298;2024-03-23T00:56:47;28.88;;;11.23;;
35675;SDS011;21790;42.668;23.298;2024-03-23T00:59:13;21.88;;;10.13;;
35675;SDS011;21790;42.668;23.298;2024-03-23T01:01:39;22.25;;;10.55;;
35675;SDS011;21790;42.668;23.298;2024-03-23T01:04:05;26.38;;;9.98;;
35675;SDS011;21790;42.668;23.298;2024-03-23T01:06:30;35.65;;;11.25;;
35675;SDS011;21790;42.668;23.298;2024-03-23T01:08:56;24.17;;;10.52;;
35675;SDS011;21790;42.668;23.298;2024-03-23T01:11:23;23.88;;;10.57;;
35675;SDS011;21790;42.668;23.298;2024-03-23T01:13:48;20.65;;;10.25;;
35675;SDS011;21790;42.668;23.298;2024-03-23T01:16:14;20.20;;;9.95;;
35675;SDS011;21790;42.668;23.298;2024-03-23T01:18:40;18.48;;;9.73;;
35675;SDS011;21790;42.668;23.298;2024-03-23T01:21:06;16.30;;;8.07;;
35675;SDS011;21790;42.668;23.298;2024-03-23T01:23:31;23.50;;;9.27;;
35675;SDS011;21790;42.668;23.298;2024-03-23T01:25:57;21.52;;;9.55;;
35675;SDS011;21790;42.668;23.298;2024-03-23T01:28:23;19.00;;;9.40;;
35675;SDS011;21790;42.668;23.298;2024-03-23T01:30:49;18.58;;;9.35;;
35675;SDS011;21790;42.668;23.298;2024-03-23T01:33:15;19.77;;;8.50;;
35675;SDS011;21790;42.668;23.298;2024-03-23T01:35:41;23.45;;;9.57;;
35675;SDS011;21790;42.668;23.298;2024-03-23T01:38:07;31.13;;;12.38;;
35675;SDS011;21790;42.668;23.298;2024-03-23T01:40:32;31.08;;;14.02;;
35675;SDS011;21790;42.668;23.298;2024-03-23T01:43:00;29.33;;;12.82;;
35675;SDS011;21790;42.668;23.298;2024-03-23T01:45:35;21.95;;;10.43;;
35675;SDS011;21790;42.668;23.298;2024-03-23T01:48:01;27.92;;;12.07;;
35675;SDS011;21790;42.668;23.298;2024-03-23T01:50:28;22.75;;;11.43;;
35675;SDS011;21790;42.668;23.298;2024-03-23T01:52:58;28.77;;;11.98;;
35675;SDS011;21790;42.668;23.298;2024-03-23T01:55:25;25.75;;;12.63;;
35675;SDS011;21790;42.668;23.298;2024-03-23T01:57:51;33.30;;;11.88;;
35675;SDS011;21790;42.668;23.298;2024-03-23T02:00:17;20.58;;;10.70;;
35675;SDS011;21790;42.668;23.298;2024-03-23T02:02:46;18.73;;;10.02;;
35675;SDS011;21790;42.668;23.298;2024-03-23T02:05:12;19.63;;;9.80;;
35675;SDS011;21790;42.668;23.298;2024-03-23T02:07:39;26.52;;;12.25;;
35675;SDS011;21790;42.668;23.298;2024-03-23T02:10:06;27.98;;;13.18;;
35675;SDS011;21790;42.668;23.298;2024-03-23T02:12:33;28.90;;;14.13;;
35675;SDS011;21790;42.668;23.298;2024-03-23T02:15:00;31.10;;;14.00;;
35675;SDS011;21790;42.668;23.298;2024-03-23T02:17:26;28.45;;;12.70;;
35675;SDS011;21790;42.668;23.298;2024-03-23T02:19:52;24.75;;;11.07;;
35675;SDS011;21790;42.668;23.298;2024-03-23T02:22:17;18.55;;;9.60;;
35675;SDS011;21790;42.668;23.298;2024-03-23T02:24:43;20.55;;;9.60;;
35675;SDS011;21790;42.668;23.298;2024-03-23T02:27:09;16.13;;;8.38;;
35675;SDS011;21790;42.668;23.298;2024-03-23T02:29:35;18.27;;;9.23;;
35675;SDS011;21790;42.668;23.298;2024-03-23T02:32:01;22.90;;;10.13;;
35675;SDS011;21790;42.668;23.298;2024-03-23T02:34:27;26.88;;;9.77;;
35675;SDS011;21790;42.668;23.298;2024-03-23T02:36:53;25.00;;;11.05;;
35675;SDS011;21790;42.668;23.298;2024-03-23T02:39:19;17.10;;;9.45;;
35675;SDS011;21790;42.668;23.298;2024-03-23T02:41:46;21.02;;;9.13;;
35675;SDS011;21790;42.668;23.298;2024-03-23T02:44:13;18.70;;;8.52;;
35675;SDS011;21790;42.668;23.298;2024-03-23T02:46:39;17.63;;;8.40;;
35675;SDS011;21790;42.668;23.298;2024-03-23T02:49:05;15.40;;;7.70;;
35675;SDS011;21790;42.668;23.298;2024-03-23T02:51:31;14.30;;;7.47;;
35675;SDS011;21790;42.668;23.298;2024-03-23T02:53:57;17.55;;;7.35;;
35675;SDS011;21790;42.668;23.298;2024-03-23T02:56:22;17.15;;;8.40;;
35675;SDS011;21790;42.668;23.298;2024-03-23T02:58:48;12.95;;;7.88;;
35675;SDS011;21790;42.668;23.298;2024-03-23T03:01:14;17.23;;;7.95;;
35675;SDS011;21790;42.668;23.298;2024-03-23T03:03:40;17.13;;;7.85;;
35675;SDS011;21790;42.668;23.298;2024-03-23T03:06:07;15.15;;;7.43;;
35675;SDS011;21790;42.668;23.298;2024-03-23T03:08:33;16.10;;;7.55;;
35675;SDS011;21790;42.668;23.298;2024-03-23T03:10:59;15.70;;;7.57;;
35675;SDS011;21790;42.668;23.298;2024-03-23T03:13:24;22.85;;;7.78;;
35675;SDS011;21790;42.668;23.298;2024-03-23T03:15:50;16.05;;;7.57;;
35675;SDS011;21790;42.668;23.298;2024-03-23T03:18:16;18.50;;;7.32;;
35675;SDS011;21790;42.668;23.298;2024-03-23T03:20:42;14.50;;;7.40;;
35675;SDS011;21790;42.668;23.298;2024-03-23T03:23:09;14.90;;;7.20;;
35675;SDS011;21790;42.668;23.298;2024-03-23T03:25:35;12.68;;;6.63;;
35675;SDS011;21790;42.668;23.298;2024-03-23T03:28:00;13.75;;;7.97;;
35675;SDS011;21790;42.668;23.298;2024-03-23T03:30:27;13.75;;;7.63;;
35675;SDS011;21790;42.668;23.298;2024-03-23T03:32:52;20.83;;;8.23;;
35675;SDS011;21790;42.668;23.298;2024-03-23T03:35:20;20.20;;;8.85;;
35675;SDS011;21790;42.668;23.298;2024-03-23T03:37:46;16.45;;;8.63;;
35675;SDS011;21790;42.668;23.298;2024-03-23T03:40:12;18.90;;;8.10;;
35675;SDS011;21790;42.668;23.298;2024-03-23T03:42:40;18.85;;;7.65;;
35675;SDS011;21790;42.668;23.298;2024-03-23T03:45:06;15.00;;;7.90;;
35675;SDS011;21790;42.668;23.298;2024-03-23T03:47:32;16.38;;;8.90;;
35675;SDS011;21790;42.668;23.298;2024-03-23T03:49:58;15.38;;;8.02;;
35675;SDS011;21790;42.668;23.298;2024-03-23T03:52:24;14.05;;;7.45;;
35675;SDS011;21790;42.668;23.298;2024-03-23T03:54:51;15.50;;;7.38;;
35675;SDS011;21790;42.668;23.298;2024-03-23T03:57:16;15.60;;;7.40;;
35675;SDS011;21790;42.668;23.298;2024-03-23T03:59:42;15.95;;;7.22;;
35675;SDS011;21790;42.668;23.298;2024-03-23T04:02:09;18.25;;;7.78;;
35675;SDS011;21790;42.668;23.298;2024-03-23T04:04:35;19.83;;;7.90;;
35675;SDS011;21790;42.668;23.298;2024-03-23T04:07:01;21.48;;;8.00;;
35675;SDS011;21790;42.668;23.298;2024-03-23T04:09:27;18.60;;;7.85;;
35675;SDS011;21790;42.668;23.298;2024-03-23T04:11:53;15.45;;;6.90;;
35675;SDS011;21790;42.668;23.298;2024-03-23T04:14:19;20.77;;;7.78;;
35675;SDS011;21790;42.668;23.298;2024-03-23T04:16:45;11.98;;;7.25;;
35675;SDS011;21790;42.668;23.298;2024-03-23T04:19:11;20.25;;;7.88;;
35675;SDS011;21790;42.668;23.298;2024-03-23T04:21:37;21.73;;;9.93;;
35675;SDS011;21790;42.668;23.298;2024-03-23T04:24:03;15.02;;;7.28;;
35675;SDS011;21790;42.668;23.298;2024-03-23T04:26:30;18.75;;;7.45;;
35675;SDS011;21790;42.668;23.298;2024-03-23T04:28:56;18.52;;;7.68;;
35675;SDS011;21790;42.668;23.298;2024-03-23T04:31:21;15.65;;;7.32;;
35675;SDS011;21790;42.668;23.298;2024-03-23T04:33:47;21.60;;;7.90;;
35675;SDS011;21790;42.668;23.298;2024-03-23T04:36:13;19.92;;;8.13;;
35675;SDS011;21790;42.668;23.298;2024-03-23T04:38:39;19.80;;;8.32;;
35675;SDS011;21790;42.668;23.298;2024-03-23T04:41:05;16.45;;;9.00;;
35675;SDS011;21790;42.668;23.298;2024-03-23T04:43:31;19.08;;;8.85;;
35675;SDS011;21790;42.668;23.298;2024-03-23T04:45:56;17.52;;;9.10;;
35675;SDS011;21790;42.668;23.298;2024-03-23T04:48:22;24.38;;;8.05;;
35675;SDS011;21790;42.668;23.298;2024-03-23T04:50:49;23.00;;;10.10;;
35675;SDS011;21790;42.668;23.298;2024-03-23T04:53:19;26.90;;;11.40;;
35675;SDS011;21790;42.668;23.298;2024-03-23T04:55:45;24.40;;;10.10;;
35675;SDS011;21790;42.668;23.298;2024-03-23T04:58:11;21.40;;;9.90;;
35675;SDS011;21790;42.668;23.298;2024-03-23T05:00:38;27.52;;;10.65;;
35675;SDS011;21790;42.668;23.298;2024-03-23T05:03:22;26.92;;;11.05;;
35675;SDS011;21790;42.668;23.298;2024-03-23T05:05:49;29.83;;;12.30;;
35675;SDS011;21790;42.668;23.298;2024-03-23T05:08:15;45.85;;;20.83;;
35675;SDS011;21790;42.668;23.298;2024-03-23T05:10:44;30.58;;;14.48;;
35675;SDS011;21790;42.668;23.298;2024-03-23T05:13:11;27.85;;;11.77;;
35675;SDS011;21790;42.668;23.298;2024-03-23T05:15:37;31.52;;;13.25;;
35675;SDS011;21790;42.668;23.298;2024-03-23T05:18:03;36.08;;;13.23;;
35675;SDS011;21790;42.668;23.298;2024-03-23T05:20:30;32.28;;;12.65;;
35675;SDS011;21790;42.668;23.298;2024-03-23T05:22:56;35.28;;;12.07;;
35675;SDS011;21790;42.668;23.298;2024-03-23T05:25:23;31.85;;;12.65;;
35675;SDS011;21790;42.668;23.298;2024-03-23T05:27:49;26.88;;;12.93;;
35675;SDS011;21790;42.668;23.298;2024-03-23T05:30:15;29.38;;;13.15;;
35675;SDS011;21790;42.668;23.298;2024-03-23T05:32:41;31.52;;;12.85;;
35675;SDS011;21790;42.668;23.298;2024-03-23T05:35:08;25.67;;;12.65;;
35675;SDS011;21790;42.668;23.298;2024-03-23T05:37:35;26.88;;;13.20;;
35675;SDS011;21790;42.668;23.298;2024-03-23T05:40:03;30.10;;;13.13;;
35675;SDS011;21790;42.668;23.298;2024-03-23T05:42:29;29.20;;;13.75;;
35675;SDS011;21790;42.668;23.298;2024-03-23T05:44:55;25.92;;;12.80;;
35675;SDS011;21790;42.668;23.298;2024-03-23T05:47:21;27.25;;;12.80;;
35675;SDS011;21790;42.668;23.298;2024-03-23T05:49:47;23.58;;;13.88;;
35675;SDS011;21790;42.668;23.298;2024-03-23T05:52:13;23.15;;;12.82;;
35675;SDS011;21790;42.668;23.298;2024-03-23T05:54:39;25.15;;;12.95;;
35675;SDS011;21790;42.668;23.298;2024-03-23T05:57:05;25.63;;;13.27;;
35675;SDS011;21790;42.668;23.298;2024-03-23T05:59:34;33.53;;;13.55;;
35675;SDS011;21790;42.668;23.298;2024-03-23T06:02:00;32.15;;;13.30;;
35675;SDS011;21790;42.668;23.298;2024-03-23T06:04:26;24.58;;;13.38;;
35675;SDS011;21790;42.668;23.298;2024-03-23T06:06:52;28.08;;;14.00;;
35675;SDS011;21790;42.668;23.298;2024-03-23T06:09:18;31.42;;;13.88;;
35675;SDS011;21790;42.668;23.298;2024-03-23T06:11:45;26.60;;;14.68;;
35675;SDS011;21790;42.668;23.298;2024-03-23T06:14:10;27.23;;;14.13;;
35675;SDS011;21790;42.668;23.298;2024-03-23T06:16:36;27.30;;;14.13;;
35675;SDS011;21790;42.668;23.298;2024-03-23T06:19:02;25.38;;;13.60;;
35675;SDS011;21790;42.668;23.298;2024-03-23T06:21:29;34.75;;;14.35;;
35675;SDS011;21790;42.668;23.298;2024-03-23T06:23:55;29.73;;;13.80;;
35675;SDS011;21790;42.668;23.298;2024-03-23T06:26:21;25.88;;;13.68;;
35675;SDS011;21790;42.668;23.298;2024-03-23T06:28:47;28.30;;;14.43;;
35675;SDS011;21790;42.668;23.298;2024-03-23T06:31:13;21.40;;;13.90;;
35675;SDS011;21790;42.668;23.298;2024-03-23T06:33:39;23.13;;;13.05;;
35675;SDS011;21790;42.668;23.298;2024-03-23T06:36:11;29.27;;;14.55;;
35675;SDS011;21790;42.668;23.298;2024-03-23T06:38:40;34.25;;;16.48;;
35675;SDS011;21790;42.668;23.298;2024-03-23T06:41:06;30.55;;;14.68;;
35675;SDS011;21790;42.668;23.298;2024-03-23T06:43:32;24.38;;;13.18;;
35675;SDS011;21790;42.668;23.298;2024-03-23T06:45:58;27.60;;;12.85;;
35675;SDS011;21790;42.668;23.298;2024-03-23T06:48:24;22.13;;;13.00;;
35675;SDS011;21790;42.668;23.298;2024-03-23T06:50:54;25.42;;;13.52;;
35675;SDS011;21790;42.668;23.298;2024-03-23T06:53:23;29.50;;;13.88;;
35675;SDS011;21790;42.668;23.298;2024-03-23T06:55:50;23.55;;;12.68;;
35675;SDS011;21790;42.668;23.298;2024-03-23T06:58:18;22.70;;;12.75;;
35675;SDS011;21790;42.668;23.298;2024-03-23T07:00:47;20.30;;;11.77;;
35675;SDS011;21790;42.668;23.298;2024-03-23T07:03:14;25.83;;;12.98;;
35675;SDS011;21790;42.668;23.298;2024-03-23T07:05:40;22.83;;;12.40;;
35675;SDS011;21790;42.668;23.298;2024-03-23T07:08:07;27.38;;;12.27;;
35675;SDS011;21790;42.668;23.298;2024-03-23T07:10:33;21.38;;;11.57;;
35675;SDS011;21790;42.668;23.298;2024-03-23T07:13:00;19.95;;;10.77;;
35675;SDS011;21790;42.668;23.298;2024-03-23T07:15:26;20.55;;;11.52;;
35675;SDS011;21790;42.668;23.298;2024-03-23T08:35:54;21.85;;;11.80;;
35675;SDS011;21790;42.668;23.298;2024-03-23T08:38:24;26.05;;;12.43;;
35675;SDS011;21790;42.668;23.298;2024-03-23T08:41:04;20.98;;;11.68;;
35675;SDS011;21790;42.668;23.298;2024-03-23T08:43:33;35.17;;;12.77;;
35675;SDS011;21790;42.668;23.298;2024-03-23T08:46:12;26.98;;;12.80;;
35675;SDS011;21790;42.668;23.298;2024-03-23T08:48:41;33.28;;;13.15;;
35675;SDS011;21790;42.668;23.298;2024-03-23T08:51:09;30.15;;;14.10;;
35675;SDS011;21790;42.668;23.298;2024-03-23T08:53:36;50.13;;;14.48;;
35675;SDS011;21790;42.668;23.298;2024-03-23T08:56:02;24.10;;;12.07;;
35675;SDS011;21790;42.668;23.298;2024-03-23T08:58:29;27.70;;;12.98;;
35675;SDS011;21790;42.668;23.298;2024-03-23T09:00:57;31.30;;;14.60;;
35675;SDS011;21790;42.668;23.298;2024-03-23T09:03:29;23.42;;;10.38;;
35675;SDS011;21790;42.668;23.298;2024-03-23T09:05:57;19.85;;;10.48;;
35675;SDS011;21790;42.668;23.298;2024-03-23T09:08:24;21.38;;;11.98;;
35675;SDS011;21790;42.668;23.298;2024-03-23T09:10:50;26.33;;;12.93;;
35675;SDS011;21790;42.668;23.298;2024-03-23T09:13:15;22.48;;;13.30;;
35675;SDS011;21790;42.668;23.298;2024-03-23T09:15:48;23.85;;;12.50;;
35675;SDS011;21790;42.668;23.298;2024-03-23T09:18:15;25.98;;;12.20;;
35675;SDS011;21790;42.668;23.298;2024-03-23T09:20:41;23.98;;;11.75;;
35675;SDS011;21790;42.668;23.298;2024-03-23T09:23:07;32.60;;;12.65;;
35675;SDS011;21790;42.668;23.298;2024-03-23T09:25:37;24.77;;;12.98;;
35675;SDS011;21790;42.668;23.298;2024-03-23T09:28:04;23.50;;;12.32;;
35675;SDS011;21790;42.668;23.298;2024-03-23T09:30:36;25.20;;;12.82;;
35675;SDS011;21790;42.668;23.298;2024-03-23T09:33:07;22.63;;;12.73;;
35675;SDS011;21790;42.668;23.298;2024-03-23T09:35:37;27.55;;;13.48;;
35675;SDS011;21790;42.668;23.298;2024-03-23T09:38:07;21.00;;;13.23;;
35675;SDS011;21790;42.668;23.298;2024-03-23T09:40:34;23.13;;;13.88;;
35675;SDS011;21790;42.668;23.298;2024-03-23T09:43:00;22.50;;;12.63;;
35675;SDS011;21790;42.668;23.298;2024-03-23T09:45:27;24.55;;;12.43;;
35675;SDS011;21790;42.668;23.298;2024-03-23T09:47:57;23.50;;;12.13;;
35675;SDS011;21790;42.668;23.298;2024-03-23T09:50:23;25.85;;;13.20;;
35675;SDS011;21790;42.668;23.298;2024-03-23T09:52:48;21.88;;;12.27;;
35675;SDS011;21790;42.668;23.298;2024-03-23T09:55:14;23.33;;;12.73;;
35675;SDS011;21790;42.668;23.298;2024-03-23T09:57:41;19.98;;;11.82;;
35675;SDS011;21790;42.668;23.298;2024-03-23T10:00:07;22.20;;;11.80;;
35675;SDS011;21790;42.668;23.298;2024-03-23T10:02:34;26.52;;;12.80;;
35675;SDS011;21790;42.668;23.298;2024-03-23T10:05:00;23.17;;;12.40;;
35675;SDS011;21790;42.668;23.298;2024-03-23T10:07:26;20.08;;;10.57;;
35675;SDS011;21790;42.668;23.298;2024-03-23T10:09:55;16.15;;;9.48;;
35675;SDS011;21790;42.668;23.298;2024-03-23T10:12:21;19.88;;;10.85;;
35675;SDS011;21790;42.668;23.298;2024-03-23T10:14:48;25.63;;;11.93;;
35675;SDS011;21790;42.668;23.298;2024-03-23T10:17:16;24.23;;;12.07;;
35675;SDS011;21790;42.668;23.298;2024-03-23T10:19:50;16.98;;;9.88;;
35675;SDS011;21790;42.668;23.298;2024-03-23T10:22:23;23.83;;;11.02;;
35675;SDS011;21790;42.668;23.298;2024-03-23T10:24:52;24.02;;;11.48;;
35675;SDS011;21790;42.668;23.298;2024-03-23T10:27:19;15.82;;;10.63;;
35675;SDS011;21790;42.668;23.298;2024-03-23T10:29:46;22.50;;;11.07;;
35675;SDS011;21790;42.668;23.298;2024-03-23T10:32:13;17.00;;;10.57;;
35675;SDS011;21790;42.668;23.298;2024-03-23T10:34:40;16.05;;;9.52;;
35675;SDS011;21790;42.668;23.298;2024-03-23T10:37:07;21.38;;;11.02;;
35675;SDS011;21790;42.668;23.298;2024-03-23T10:39:34;23.67;;;10.07;;
35675;SDS011;21790;42.668;23.298;2024-03-23T10:42:04;19.83;;;10.13;;
35675;SDS011;21790;42.668;23.298;2024-03-23T10:44:33;16.90;;;10.10;;
35675;SDS011;21790;42.668;23.298;2024-03-23T10:47:03;15.65;;;9.25;;
35675;SDS011;21790;42.668;23.298;2024-03-23T10:49:31;20.77;;;9.98;;
35675;SDS011;21790;42.668;23.298;2024-03-23T10:51:59;16.52;;;9.48;;
35675;SDS011;21790;42.668;23.298;2024-03-23T10:54:25;13.13;;;8.10;;
35675;SDS011;21790;42.668;23.298;2024-03-23T10:59:57;15.15;;;7.95;;
35675;SDS011;21790;42.668;23.298;2024-03-23T11:02:23;13.15;;;9.20;;
35675;SDS011;21790;42.668;23.298;2024-03-23T11:04:52;20.10;;;8.98;;
35675;SDS011;21790;42.668;23.298;2024-03-23T11:09:53;27.05;;;12.88;;
35675;SDS011;21790;42.668;23.298;2024-03-23T11:17:31;22.35;;;12.07;;
35675;SDS011;21790;42.668;23.298;2024-03-23T11:19:58;19.73;;;10.13;;
35675;SDS011;21790;42.668;23.298;2024-03-23T11:25:02;15.52;;;7.85;;
35675;SDS011;21790;42.668;23.298;2024-03-23T11:27:38;29.55;;;9.57;;
35675;SDS011;21790;42.668;23.298;2024-03-23T11:30:13;18.55;;;7.93;;
35675;SDS011;21790;42.668;23.298;2024-03-23T11:32:42;21.13;;;9.02;;
35675;SDS011;21790;42.668;23.298;2024-03-23T11:35:08;17.13;;;7.55;;
35675;SDS011;21790;42.668;23.298;2024-03-23T11:37:35;17.42;;;8.63;;
35675;SDS011;21790;42.668;23.298;2024-03-23T11:40:16;17.73;;;9.48;;
35675;SDS011;21790;42.668;23.298;2024-03-23T11:42:45;20.85;;;9.00;;
35675;SDS011;21790;42.668;23.298;2024-03-23T11:45:18;20.13;;;8.88;;
35675;SDS011;21790;42.668;23.298;2024-03-23T11:47:44;20.45;;;9.43;;
35675;SDS011;21790;42.668;23.298;2024-03-23T11:50:10;17.38;;;10.07;;
35675;SDS011;21790;42.668;23.298;2024-03-23T11:52:44;14.52;;;8.50;;
35675;SDS011;21790;42.668;23.298;2024-03-23T11:55:10;13.60;;;7.72;;
35675;SDS011;21790;42.668;23.298;2024-03-23T11:57:36;14.73;;;8.30;;
35675;SDS011;21790;42.668;23.298;2024-03-23T12:00:02;15.75;;;7.85;;
35675;SDS011;21790;42.668;23.298;2024-03-23T12:02:45;11.30;;;6.97;;
35675;SDS011;21790;42.668;23.298;2024-03-23T12:05:15;13.93;;;7.68;;
35675;SDS011;21790;42.668;23.298;2024-03-23T12:07:41;13.57;;;7.28;;
35675;SDS011;21790;42.668;23.298;2024-03-23T12:10:07;15.65;;;8.30;;
35675;SDS011;21790;42.668;23.298;2024-03-23T12:12:33;12.82;;;7.70;;
35675;SDS011;21790;42.668;23.298;2024-03-23T12:15:05;11.63;;;6.80;;
35675;SDS011;21790;42.668;23.298;2024-03-23T12:17:33;13.13;;;6.40;;
35675;SDS011;21790;42.668;23.298;2024-03-23T12:20:00;10.23;;;5.18;;
35675;SDS011;21790;42.668;23.298;2024-03-23T12:22:28;11.48;;;5.78;;
35675;SDS011;21790;42.668;23.298;2024-03-23T12:24:57;12.90;;;6.28;;
35675;SDS011;21790;42.668;23.298;2024-03-23T12:27:23;12.30;;;7.15;;
35675;SDS011;21790;42.668;23.298;2024-03-23T12:29:49;6.65;;;2.47;;
35675;SDS011;21790;42.668;23.298;2024-03-23T12:32:14;4.80;;;3.00;;
35675;SDS011;21790;42.668;23.298;2024-03-23T12:34:41;13.98;;;5.78;;
35675;SDS011;21790;42.668;23.298;2024-03-23T12:37:07;10.63;;;5.88;;
35675;SDS011;21790;42.668;23.298;2024-03-23T12:39:33;16.10;;;5.20;;
35675;SDS011;21790;42.668;23.298;2024-03-23T12:42:00;4.72;;;2.88;;
35675;SDS011;21790;42.668;23.298;2024-03-23T12:44:28;5.18;;;2.10;;
35675;SDS011;21790;42.668;23.298;2024-03-23T12:46:54;6.63;;;2.30;;
35675;SDS011;21790;42.668;23.298;2024-03-23T12:49:20;2.03;;;1.42;;
35675;SDS011;21790;42.668;23.298;2024-03-23T12:51:48;5.03;;;2.50;;
35675;SDS011;21790;42.668;23.298;2024-03-23T12:54:20;12.80;;;3.47;;
35675;SDS011;21790;42.668;23.298;2024-03-23T12:56:46;3.15;;;1.85;;
35675;SDS011;21790;42.668;23.298;2024-03-23T12:59:11;2.55;;;1.80;;
35675;SDS011;21790;42.668;23.298;2024-03-23T13:01:38;2.88;;;1.50;;
35675;SDS011;21790;42.668;23.298;2024-03-23T13:04:04;5.30;;;1.50;;
35675;SDS011;21790;42.668;23.298;2024-03-23T13:06:30;5.13;;;1.80;;
35675;SDS011;21790;42.668;23.298;2024-03-23T13:09:02;5.25;;;1.92;;
35675;SDS011;21790;42.668;23.298;2024-03-23T13:11:28;6.63;;;1.35;;
35675;SDS011;21790;42.668;23.298;2024-03-23T13:13:55;6.03;;;1.65;;
35675;SDS011;21790;42.668;23.298;2024-03-23T13:16:21;6.97;;;1.88;;
35675;SDS011;21790;42.668;23.298;2024-03-23T13:18:46;7.60;;;1.67;;
35675;SDS011;21790;42.668;23.298;2024-03-23T13:21:12;3.33;;;1.90;;
35675;SDS011;21790;42.668;23.298;2024-03-23T13:23:38;2.70;;;1.67;;
35675;SDS011;21790;42.668;23.298;2024-03-23T13:26:07;2.92;;;1.70;;
35675;SDS011;21790;42.668;23.298;2024-03-23T13:28:33;2.97;;;1.90;;
35675;SDS011;21790;42.668;23.298;2024-03-23T13:31:01;4.65;;;1.70;;
35675;SDS011;21790;42.668;23.298;2024-03-23T13:33:29;4.60;;;1.90;;
35675;SDS011;21790;42.668;23.298;2024-03-23T13:35:55;4.15;;;1.58;;
35675;SDS011;21790;42.668;23.298;2024-03-23T13:38:24;3.10;;;1.50;;
35675;SDS011;21790;42.668;23.298;2024-03-23T13:40:54;2.53;;;1.38;;
35675;SDS011;21790;42.668;23.298;2024-03-23T13:43:24;2.50;;;1.55;;
35675;SDS011;21790;42.668;23.298;2024-03-23T13:45:55;8.25;;;1.73;;
35675;SDS011;21790;42.668;23.298;2024-03-23T13:48:25;2.03;;;1.45;;
35675;SDS011;21790;42.668;23.298;2024-03-23T13:50:59;1.23;;;1.10;;
35675;SDS011;21790;42.668;23.298;2024-03-23T13:53:25;4.55;;;1.75;;
35675;SDS011;21790;42.668;23.298;2024-03-23T13:55:51;4.88;;;1.98;;
35675;SDS011;21790;42.668;23.298;2024-03-23T13:58:20;8.68;;;1.83;;
35675;SDS011;21790;42.668;23.298;2024-03-23T14:00:46;5.88;;;2.00;;
35675;SDS011;21790;42.668;23.298;2024-03-23T14:03:13;2.78;;;1.67;;
35675;SDS011;21790;42.668;23.298;2024-03-23T14:05:39;5.72;;;1.70;;
35675;SDS011;21790;42.668;23.298;2024-03-23T14:08:09;2.70;;;1.70;;
35675;SDS011;21790;42.668;23.298;2024-03-23T14:10:36;4.18;;;1.83;;
35675;SDS011;21790;42.668;23.298;2024-03-23T14:13:05;3.35;;;1.73;;
35675;SDS011;21790;42.668;23.298;2024-03-23T14:15:31;5.57;;;2.40;;
35675;SDS011;21790;42.668;23.298;2024-03-23T14:17:57;3.38;;;2.30;;
35675;SDS011;21790;42.668;23.298;2024-03-23T14:20:24;10.57;;;2.30;;
35675;SDS011;21790;42.668;23.298;2024-03-23T14:22:51;3.45;;;2.00;;
35675;SDS011;21790;42.668;23.298;2024-03-23T14:25:17;4.20;;;2.08;;
35675;SDS011;21790;42.668;23.298;2024-03-23T14:27:46;5.70;;;2.10;;
35675;SDS011;21790;42.668;23.298;2024-03-23T14:30:12;4.13;;;2.15;;
35675;SDS011;21790;42.668;23.298;2024-03-23T14:32:39;5.22;;;2.33;;
35675;SDS011;21790;42.668;23.298;2024-03-23T14:35:05;6.07;;;2.72;;
35675;SDS011;21790;42.668;23.298;2024-03-23T14:37:32;4.13;;;2.75;;
35675;SDS011;21790;42.668;23.298;2024-03-23T14:39:58;5.45;;;2.70;;
35675;SDS011;21790;42.668;23.298;2024-03-23T14:42:24;4.00;;;2.60;;
35675;SDS011;21790;42.668;23.298;2024-03-23T16:56:50;10.75;;;4.68;;
35675;SDS011;21790;42.668;23.298;2024-03-23T16:59:16;18.90;;;4.97;;
35675;SDS011;21790;42.668;23.298;2024-03-23T17:01:43;14.52;;;5.25;;
35675;SDS011;21790;42.668;23.298;2024-03-23T17:04:09;13.43;;;4.63;;
35675;SDS011;21790;42.668;23.298;2024-03-23T17:06:35;13.30;;;5.20;;
35675;SDS011;21790;42.668;23.298;2024-03-23T17:09:04;15.27;;;4.82;;
35675;SDS011;21790;42.668;23.298;2024-03-23T17:11:35;10.80;;;4.53;;
35675;SDS011;21790;42.668;23.298;2024-03-23T17:14:00;10.68;;;3.60;;
35675;SDS011;21790;42.668;23.298;2024-03-23T17:16:27;9.13;;;4.00;;
35675;SDS011;21790;42.668;23.298;2024-03-23T17:18:56;16.27;;;4.75;;
35675;SDS011;21790;42.668;23.298;2024-03-23T17:21:22;8.48;;;4.00;;
35675;SDS011;21790;42.668;23.298;2024-03-23T17:23:48;20.40;;;5.22;;
35675;SDS011;21790;42.668;23.298;2024-03-23T17:26:15;12.32;;;5.03;;
35675;SDS011;21790;42.668;23.298;2024-03-23T17:28:45;23.60;;;6.03;;
35675;SDS011;21790;42.668;23.298;2024-03-23T17:31:17;17.30;;;4.82;;
35675;SDS011;21790;42.668;23.298;2024-03-23T17:33:44;8.93;;;4.28;;
35675;SDS011;21790;42.668;23.298;2024-03-23T17:36:10;10.27;;;4.10;;
35675;SDS011;21790;42.668;23.298;2024-03-23T17:38:36;13.65;;;4.93;;
35675;SDS011;21790;42.668;23.298;2024-03-23T17:41:03;13.38;;;4.82;;
35675;SDS011;21790;42.668;23.298;2024-03-23T17:43:29;14.73;;;5.18;;
35675;SDS011;21790;42.668;23.298;2024-03-23T17:45:56;7.18;;;4.20;;
35675;SDS011;21790;42.668;23.298;2024-03-23T17:48:22;8.43;;;3.75;;
35675;SDS011;21790;42.668;23.298;2024-03-23T17:50:49;12.43;;;4.13;;
35675;SDS011;21790;42.668;23.298;2024-03-23T17:53:24;6.40;;;3.45;;
35675;SDS011;21790;42.668;23.298;2024-03-23T17:55:50;10.57;;;4.28;;
35675;SDS011;21790;42.668;23.298;2024-03-23T17:58:16;6.90;;;3.53;;
35675;SDS011;21790;42.668;23.298;2024-03-23T18:00:42;9.68;;;3.67;;
35675;SDS011;21790;42.668;23.298;2024-03-23T18:03:08;7.65;;;3.95;;
35675;SDS011;21790;42.668;23.298;2024-03-23T18:05:33;8.93;;;3.40;;
35675;SDS011;21790;42.668;23.298;2024-03-23T18:07:59;13.82;;;3.50;;
35675;SDS011;21790;42.668;23.298;2024-03-23T18:10:25;9.38;;;3.38;;
35675;SDS011;21790;42.668;23.298;2024-03-23T18:12:51;5.55;;;3.60;;
35675;SDS011;21790;42.668;23.298;2024-03-23T18:15:16;7.72;;;4.07;;
35675;SDS011;21790;42.668;23.298;2024-03-23T18:17:42;9.57;;;3.35;;
35675;SDS011;21790;42.668;23.298;2024-03-23T18:20:08;6.53;;;3.80;;
35675;SDS011;21790;42.668;23.298;2024-03-23T18:22:36;10.75;;;3.45;;
35675;SDS011;21790;42.668;23.298;2024-03-23T18:25:03;9.38;;;3.65;;
35675;SDS011;21790;42.668;23.298;2024-03-23T18:27:30;8.23;;;3.50;;
35675;SDS011;21790;42.668;23.298;2024-03-23T18:29:56;10.57;;;3.67;;
35675;SDS011;21790;42.668;23.298;2024-03-23T18:32:24;20.25;;;3.97;;
35675;SDS011;21790;42.668;23.298;2024-03-23T18:34:50;11.48;;;3.33;;
35675;SDS011;21790;42.668;23.298;2024-03-23T18:37:16;4.93;;;3.03;;
35675;SDS011;21790;42.668;23.298;2024-03-23T18:39:41;6.07;;;2.78;;
35675;SDS011;21790;42.668;23.298;2024-03-23T18:42:07;5.38;;;3.13;;
35675;SDS011;21790;42.668;23.298;2024-03-23T18:44:33;7.15;;;3.25;;
35675;SDS011;21790;42.668;23.298;2024-03-23T18:46:59;4.57;;;3.15;;
35675;SDS011;21790;42.668;23.298;2024-03-23T18:49:25;5.15;;;2.90;;
35675;SDS011;21790;42.668;23.298;2024-03-23T18:51:51;5.28;;;2.78;;